createdAt,value
2023-04-03T00:01:34.907Z,54.48
2023-04-03T00:03:36.540Z,54.36
2023-04-03T00:05:42.190Z,54.32
2023-04-03T00:07:43.798Z,54.50
2023-04-03T00:09:45.529Z,54.50
2023-04-03T00:11:47.186Z,54.25
2023-04-03T00:13:50.626Z,54.58
2023-04-03T00:15:52.616Z,54.49
2023-04-03T00:17:54.174Z,54.25
2023-04-03T00:19:56.847Z,54.43
2023-04-03T00:21:58.463Z,53.95
2023-04-03T00:23:59.952Z,54.09
2023-04-03T00:26:01.502Z,53.83
2023-04-03T00:28:04.251Z,53.78
2023-04-03T00:30:07.796Z,53.56
2023-04-03T00:32:09.308Z,53.44
2023-04-03T00:34:11.106Z,53.59
2023-04-03T00:36:13.530Z,53.39
2023-04-03T00:38:16.034Z,53.25
2023-04-03T00:40:17.863Z,53.29
2023-04-03T00:42:19.787Z,53.45
2023-04-03T00:44:46.789Z,53.56
2023-04-03T00:46:50.349Z,53.48
2023-04-03T00:48:51.939Z,53.45
2023-04-03T00:50:54.365Z,53.53
2023-04-03T00:52:57.242Z,53.26
2023-04-03T00:55:03.315Z,53.13
2023-04-03T00:57:10.126Z,52.92
2023-04-03T00:59:21.438Z,53.25
2023-04-03T01:01:26.199Z,53.38
2023-04-03T01:03:32.501Z,53.78
2023-04-03T01:05:36.159Z,53.85
2023-04-03T01:07:38.422Z,54.00
2023-04-03T01:09:41.049Z,54.46
2023-04-03T01:11:42.526Z,54.27
2023-04-03T01:13:44.353Z,54.41
2023-04-03T01:15:48.231Z,53.93
2023-04-03T01:17:55.769Z,54.08
2023-04-03T01:20:38.647Z,53.85
2023-04-03T01:23:09.551Z,54.08
2023-04-03T01:25:11.442Z,53.75
2023-04-03T01:27:13.224Z,53.78
2023-04-03T01:29:20.955Z,53.59
2023-04-03T01:31:32.227Z,53.27
2023-04-03T01:33:33.963Z,53.12
2023-04-03T01:35:38.316Z,53.10
2023-04-03T01:37:40.151Z,52.80
2023-04-03T01:39:41.645Z,53.51
2023-04-03T01:41:50.017Z,53.41
2023-04-03T01:44:01.791Z,53.77
2023-04-03T01:46:05.127Z,53.87
2023-04-03T01:48:06.921Z,53.68
2023-04-03T01:50:15.057Z,54.14
2023-04-03T01:52:16.667Z,54.16
2023-04-03T01:54:18.350Z,53.86
2023-04-03T01:56:21.265Z,53.96
2023-04-03T01:58:23.411Z,54.22
2023-04-03T02:00:27.591Z,53.92
2023-04-03T02:02:29.331Z,54.21
2023-04-03T02:04:36.452Z,54.27
2023-04-03T02:06:38.113Z,54.32
2023-04-03T02:08:39.594Z,54.12
2023-04-03T02:10:41.571Z,54.34
2023-04-03T02:12:43.218Z,54.39
2023-04-03T02:14:44.717Z,54.77
2023-04-03T02:16:47.524Z,54.52
2023-04-03T02:18:49.430Z,54.78
2023-04-03T02:20:51.735Z,54.57
2023-04-03T02:22:53.209Z,54.33
2023-04-03T02:24:54.776Z,54.42
2023-04-03T02:26:56.260Z,54.82
2023-04-03T02:29:00.331Z,54.86
2023-04-03T02:31:01.855Z,54.87
2023-04-03T02:33:06.437Z,55.16
2023-04-03T02:35:08.469Z,55.29
2023-04-03T02:37:10.502Z,55.29
2023-04-03T02:39:12.384Z,55.12
2023-04-03T02:41:14.257Z,55.24
2023-04-03T02:43:16.181Z,55.14
2023-04-03T02:45:18.228Z,55.05
2023-04-03T02:47:20.188Z,55.09
2023-04-03T02:49:21.847Z,55.28
2023-04-03T02:51:25.625Z,56.04
2023-04-03T02:53:28.776Z,55.63
2023-04-03T02:55:32.451Z,56.12
2023-04-03T02:57:34.166Z,56.12
2023-04-03T02:59:37.718Z,56.16
2023-04-03T03:01:42.419Z,56.05
2023-04-03T03:03:45.203Z,55.98
2023-04-03T03:05:46.757Z,56.03
2023-04-03T03:07:48.747Z,56.50
2023-04-03T03:09:50.529Z,56.57
2023-04-03T03:11:52.073Z,56.43
2023-04-03T03:14:03.835Z,56.62
2023-04-03T03:16:07.787Z,56.66
2023-04-03T03:18:09.797Z,56.76
2023-04-03T03:20:12.338Z,56.68
2023-04-03T03:22:13.852Z,56.34
2023-04-03T03:24:16.769Z,56.39
2023-04-03T03:26:18.225Z,56.37
2023-04-03T03:28:19.982Z,56.00
2023-04-03T03:30:25.088Z,56.13
2023-04-03T03:32:26.675Z,56.28
2023-04-03T03:34:30.982Z,56.36
2023-04-03T03:36:32.792Z,56.28
2023-04-03T03:38:34.395Z,56.03
2023-04-03T03:40:37.175Z,55.43
2023-04-03T03:42:39.953Z,55.41
2023-04-03T03:44:47.029Z,55.23
2023-04-03T03:46:48.477Z,55.51
2023-04-03T03:48:50.314Z,55.85
2023-04-03T03:50:52.154Z,56.16
2023-04-03T03:52:57.696Z,55.55
2023-04-03T03:54:59.424Z,56.03
2023-04-03T03:57:01.654Z,56.28
2023-04-03T03:59:05.553Z,56.19
2023-04-03T04:01:07.865Z,56.16
2023-04-03T04:03:15.279Z,55.85
2023-04-03T04:05:18.073Z,56.52
2023-04-03T04:07:20.448Z,56.30
2023-04-03T04:09:22.620Z,56.16
2023-04-03T04:11:28.182Z,55.92
2023-04-03T04:13:35.682Z,55.62
2023-04-03T04:15:37.804Z,55.42
2023-04-03T04:17:39.892Z,55.33
2023-04-03T04:19:48.292Z,55.23
2023-04-03T04:21:52.776Z,55.41
2023-04-03T04:23:54.705Z,55.40
2023-04-03T04:25:56.236Z,55.02
2023-04-03T04:27:58.280Z,55.24
2023-04-03T04:30:00.402Z,54.74
2023-04-03T04:32:08.113Z,54.64
2023-04-03T04:34:09.923Z,54.52
2023-04-03T04:36:12.621Z,54.13
2023-04-03T04:38:14.125Z,54.13
2023-04-03T04:40:16.156Z,54.25
2023-04-03T04:42:19.004Z,54.56
2023-04-03T04:44:23.156Z,55.00
2023-04-03T04:46:28.457Z,54.82
2023-04-03T04:48:33.513Z,54.96
2023-04-03T04:50:35.549Z,54.77
2023-04-03T04:52:37.354Z,55.02
2023-04-03T04:54:48.537Z,55.98
2023-04-03T04:56:50.261Z,55.76
2023-04-03T04:58:51.740Z,56.13
2023-04-03T05:01:08.203Z,56.52
2023-04-03T05:03:14.390Z,56.62
2023-04-03T05:05:16.036Z,56.67
2023-04-03T05:07:20.220Z,56.39
2023-04-03T05:09:22.056Z,56.58
2023-04-03T05:11:25.355Z,56.39
2023-04-03T05:13:32.426Z,56.43
2023-04-03T05:15:33.935Z,57.05
2023-04-03T05:17:35.725Z,57.00
2023-04-03T05:19:39.281Z,56.81
2023-04-03T05:21:42.710Z,56.77
2023-04-03T05:23:48.365Z,56.81
2023-04-03T05:25:50.105Z,57.17
2023-04-03T05:27:53.098Z,57.32
2023-04-03T05:30:00.222Z,57.12
2023-04-03T05:32:02.160Z,57.34
2023-04-03T05:34:04.128Z,56.90
2023-04-03T05:36:09.010Z,56.97
2023-04-03T05:38:16.583Z,57.49
2023-04-03T05:40:19.526Z,57.42
2023-04-03T05:42:24.169Z,57.85
2023-04-03T05:44:25.705Z,57.30
2023-04-03T05:46:29.829Z,56.75
2023-04-03T05:48:33.575Z,56.80
2023-04-03T05:50:42.316Z,57.13
2023-04-03T05:52:52.264Z,57.38
2023-04-03T05:54:54.303Z,57.27
2023-04-03T05:57:00.509Z,57.57
2023-04-03T05:59:12.690Z,57.57
2023-04-03T06:01:25.726Z,58.01
2023-04-03T06:03:27.746Z,57.22
2023-04-03T06:05:29.698Z,57.75
2023-04-03T06:07:31.663Z,57.30
2023-04-03T06:09:33.414Z,57.56
2023-04-03T06:11:35.057Z,56.96
2023-04-03T06:13:36.618Z,57.07
2023-04-03T06:15:40.649Z,56.45
2023-04-03T06:17:47.347Z,56.15
2023-04-03T06:19:48.955Z,56.62
2023-04-03T06:21:52.853Z,56.75
2023-04-03T06:23:54.401Z,55.87
2023-04-03T06:25:56.058Z,55.56
2023-04-03T06:27:57.754Z,55.40
2023-04-03T06:29:59.231Z,55.49
2023-04-03T06:32:03.336Z,55.22
2023-04-03T06:34:06.183Z,54.98
2023-04-03T06:36:14.319Z,54.40
2023-04-03T06:38:16.268Z,54.51
2023-04-03T06:40:30.291Z,54.10
2023-04-03T06:42:31.769Z,54.17
2023-04-03T06:44:40.860Z,54.46
2023-04-03T06:46:44.373Z,54.12
2023-04-03T06:48:46.495Z,53.90
2023-04-03T06:50:48.029Z,53.96
2023-04-03T06:52:49.570Z,53.28
2023-04-03T06:54:58.111Z,53.77
2023-04-03T06:56:59.772Z,53.61
2023-04-03T06:59:01.702Z,53.27
2023-04-03T07:01:03.369Z,53.20
2023-04-03T07:03:05.147Z,53.66
2023-04-03T07:05:07.402Z,53.54
2023-04-03T07:07:09.150Z,53.73
2023-04-03T07:09:11.594Z,53.28
2023-04-03T07:11:14.126Z,53.51
2023-04-03T07:13:15.760Z,53.16
2023-04-03T07:15:17.456Z,53.73
2023-04-03T07:17:19.030Z,53.90
2023-04-03T07:19:20.573Z,53.73
2023-04-03T07:21:22.342Z,53.35
2023-04-03T07:23:24.489Z,53.27
2023-04-03T07:25:26.257Z,53.33
2023-04-03T07:27:27.977Z,52.87
2023-04-03T07:29:29.575Z,53.17
2023-04-03T07:31:31.277Z,53.32
2023-04-03T07:33:33.365Z,52.71
2023-04-03T07:35:34.896Z,52.88
2023-04-03T07:37:36.660Z,52.31
2023-04-03T07:39:38.190Z,51.81
2023-04-03T07:41:39.672Z,52.38
2023-04-03T07:43:41.945Z,52.10
2023-04-03T07:45:44.344Z,51.95
2023-04-03T07:47:46.286Z,51.71
2023-04-03T07:49:48.061Z,51.69
2023-04-03T07:51:49.884Z,51.76
2023-04-03T07:53:51.598Z,50.75
2023-04-03T07:55:56.486Z,50.75
2023-04-03T07:57:58.591Z,51.05
2023-04-03T08:00:00.429Z,50.50
2023-04-03T08:02:02.100Z,51.12
2023-04-03T08:04:03.807Z,50.76
2023-04-03T08:06:11.754Z,51.30
2023-04-03T08:08:21.263Z,51.17
2023-04-03T08:10:23.011Z,51.30
2023-04-03T08:12:26.239Z,51.10
2023-04-03T08:14:35.627Z,50.82
2023-04-03T08:16:37.301Z,51.05
2023-04-03T08:18:40.050Z,51.42
2023-04-03T08:20:49.587Z,51.90
2023-04-03T08:22:51.475Z,51.47
2023-04-03T08:24:59.142Z,51.76
2023-04-03T08:27:04.418Z,51.12
2023-04-03T08:29:06.300Z,51.17
2023-04-03T08:31:11.996Z,50.64
2023-04-03T08:33:16.584Z,50.37
2023-04-03T08:35:18.202Z,50.48
2023-04-03T08:37:20.173Z,50.50
2023-04-03T08:39:24.342Z,49.36
2023-04-03T08:41:31.547Z,49.02
2023-04-03T08:43:47.409Z,48.70
2023-04-03T08:45:55.282Z,48.05
2023-04-03T08:48:11.092Z,47.30
2023-04-03T08:50:31.262Z,47.11
2023-04-03T08:52:42.873Z,47.63
2023-04-03T08:54:53.709Z,46.57
2023-04-03T08:57:03.521Z,46.97
2023-04-03T08:59:13.267Z,46.92
2023-04-03T09:01:27.382Z,46.78
2023-04-03T09:03:32.443Z,46.85
2023-04-03T09:05:48.411Z,47.10
2023-04-03T09:08:08.916Z,46.46
2023-04-03T09:10:17.033Z,46.23
2023-04-03T09:12:26.603Z,45.50
2023-04-03T09:14:37.223Z,45.29
2023-04-03T09:17:00.477Z,44.95
2023-04-03T09:19:27.944Z,44.18
2023-04-03T09:21:37.875Z,44.61
2023-04-03T09:23:51.009Z,43.90
2023-04-03T09:25:57.741Z,44.36
2023-04-03T09:28:01.033Z,44.61
2023-04-03T09:30:03.581Z,44.33
2023-04-03T09:32:21.529Z,44.79
2023-04-03T09:34:29.305Z,45.28
2023-04-03T09:36:46.168Z,45.86
2023-04-03T09:39:04.326Z,45.72
2023-04-03T09:41:19.629Z,45.20
2023-04-03T09:43:27.271Z,45.40
2023-04-03T09:45:34.826Z,45.31
2023-04-03T09:47:37.860Z,45.56
2023-04-03T09:49:45.219Z,45.14
2023-04-03T09:51:46.921Z,45.16
2023-04-03T09:53:48.566Z,44.73
2023-04-03T09:55:50.300Z,44.52
2023-04-03T09:57:53.733Z,44.95
2023-04-03T10:00:02.627Z,45.22
2023-04-03T10:02:36.622Z,44.36
2023-04-03T10:04:41.508Z,44.32
2023-04-03T10:06:56.382Z,43.93
2023-04-03T10:09:22.583Z,44.67
2023-04-03T10:11:27.618Z,44.80
2023-04-03T10:13:29.797Z,43.98
2023-04-03T10:15:43.856Z,43.66
2023-04-03T10:18:08.776Z,44.42
2023-04-03T10:20:47.891Z,43.21
2023-04-03T10:23:13.698Z,42.93
2023-04-03T10:25:50.590Z,42.24
2023-04-03T10:28:01.693Z,41.53
2023-04-03T10:30:41.659Z,41.42
2023-04-03T10:32:56.025Z,41.90
2023-04-03T10:35:12.909Z,41.85
2023-04-03T10:37:29.668Z,42.32
2023-04-03T10:39:52.889Z,43.42
2023-04-03T10:42:16.101Z,42.08
2023-04-03T10:44:36.460Z,40.33
2023-04-03T10:46:54.390Z,41.29
2023-04-03T10:49:01.803Z,41.75
2023-04-03T10:51:35.132Z,42.07
2023-04-03T10:53:55.482Z,43.48
2023-04-03T10:56:06.793Z,43.38
2023-04-03T10:58:37.639Z,42.71
2023-04-03T11:00:46.670Z,43.11
2023-04-03T11:03:00.147Z,42.86
2023-04-03T11:05:19.093Z,43.59
2023-04-03T11:07:24.506Z,43.92
2023-04-03T11:09:34.757Z,44.16
2023-04-03T11:11:43.369Z,43.54
2023-04-03T11:13:52.073Z,41.78
2023-04-03T11:15:56.389Z,43.01
2023-04-03T11:18:28.191Z,43.69
2023-04-03T11:20:34.216Z,44.26
2023-04-03T11:22:51.918Z,42.58
2023-04-03T11:25:00.507Z,42.10
2023-04-03T11:27:08.379Z,43.02
2023-04-03T11:29:28.148Z,42.54
2023-04-03T11:31:53.290Z,43.38
2023-04-03T11:34:14.891Z,42.37
2023-04-03T11:36:26.130Z,42.51
2023-04-03T11:38:37.336Z,42.85
2023-04-03T11:40:39.325Z,42.63
2023-04-03T11:42:43.718Z,41.78
2023-04-03T11:44:48.572Z,40.88
2023-04-03T11:46:57.942Z,41.76
2023-04-03T11:48:59.803Z,42.26
2023-04-03T11:51:03.512Z,42.76
2023-04-03T11:53:08.182Z,43.07
2023-04-03T11:55:25.602Z,41.86
2023-04-03T11:57:59.650Z,40.88
2023-04-03T12:00:21.953Z,41.44
2023-04-03T12:02:51.218Z,39.97
2023-04-03T12:05:27.177Z,40.27
2023-04-03T12:07:29.317Z,41.15
2023-04-03T12:09:56.573Z,41.02
2023-04-03T12:12:00.795Z,41.72
2023-04-03T12:14:05.840Z,41.02
2023-04-03T12:16:19.892Z,41.19
2023-04-03T12:18:40.051Z,41.80
2023-04-03T12:20:54.296Z,41.25
2023-04-03T12:23:23.968Z,41.06
2023-04-03T12:25:53.787Z,40.88
2023-04-03T12:27:55.942Z,40.44
2023-04-03T12:30:00.808Z,40.35
2023-04-03T12:32:24.199Z,40.42
2023-04-03T12:34:54.625Z,41.52
2023-04-03T12:36:59.024Z,41.87
2023-04-03T12:39:34.825Z,40.98
2023-04-03T12:41:53.589Z,41.31
2023-04-03T12:44:21.522Z,40.34
2023-04-03T12:46:24.818Z,40.28
2023-04-03T12:48:28.781Z,40.47
2023-04-03T12:50:33.799Z,40.65
2023-04-03T12:52:49.987Z,39.56
2023-04-03T12:54:52.560Z,40.66
2023-04-03T12:57:29.774Z,39.33
2023-04-03T12:59:31.612Z,39.58
2023-04-03T13:01:33.502Z,39.64
2023-04-03T13:03:38.552Z,39.84
2023-04-03T13:05:40.473Z,40.97
2023-04-03T13:07:44.391Z,40.86
2023-04-03T13:09:56.965Z,40.82
2023-04-03T13:12:05.110Z,40.64
2023-04-03T13:14:16.531Z,40.79
2023-04-03T13:16:18.255Z,40.44
2023-04-03T13:18:37.373Z,40.78
2023-04-03T13:20:49.686Z,40.87
2023-04-03T13:23:02.596Z,39.54
2023-04-03T13:25:08.015Z,39.80
2023-04-03T13:27:12.653Z,38.49
2023-04-03T13:29:30.921Z,39.36
2023-04-03T13:31:36.256Z,38.97
2023-04-03T13:33:39.197Z,39.35
2023-04-03T13:35:42.396Z,39.38
2023-04-03T13:37:55.054Z,39.80
2023-04-03T13:40:04.135Z,39.18
2023-04-03T13:42:41.630Z,38.55
2023-04-03T13:44:43.925Z,38.70
2023-04-03T13:46:45.827Z,37.28
2023-04-03T13:48:50.556Z,38.04
2023-04-03T13:51:05.733Z,37.85
2023-04-03T13:53:14.649Z,37.53
2023-04-03T13:55:28.630Z,38.81
2023-04-03T13:57:30.229Z,39.05
2023-04-03T13:59:35.616Z,39.24
2023-04-03T14:01:51.060Z,38.21
2023-04-03T14:03:52.588Z,38.93
2023-04-03T14:05:54.239Z,38.35
2023-04-03T14:07:56.336Z,38.40
2023-04-03T14:09:58.078Z,38.74
2023-04-03T14:12:30.170Z,37.53
2023-04-03T14:14:37.393Z,38.02
2023-04-03T14:16:42.073Z,38.02
2023-04-03T14:18:45.579Z,39.09
2023-04-03T14:20:47.778Z,38.78
2023-04-03T14:22:49.765Z,38.57
2023-04-03T14:24:52.865Z,37.67
2023-04-03T14:26:55.989Z,36.66
2023-04-03T14:28:57.455Z,36.99
2023-04-03T14:30:58.936Z,36.66
2023-04-03T14:33:01.324Z,36.88
2023-04-03T14:35:03.251Z,36.94
2023-04-03T14:37:06.797Z,36.89
2023-04-03T14:39:11.549Z,36.49
2023-04-03T14:41:16.957Z,36.02
2023-04-03T14:43:19.656Z,36.18
2023-04-03T14:45:21.679Z,36.91
2023-04-03T14:47:31.824Z,37.08
2023-04-03T14:49:34.205Z,36.46
2023-04-03T14:51:36.035Z,36.85
2023-04-03T14:53:39.354Z,36.79
2023-04-03T14:55:46.060Z,36.26
2023-04-03T14:57:47.980Z,36.32
2023-04-03T14:59:49.482Z,36.54
2023-04-03T15:01:51.278Z,36.46
2023-04-03T15:03:53.226Z,36.46
2023-04-03T15:05:55.916Z,35.84
2023-04-03T15:08:01.351Z,35.66
2023-04-03T15:10:14.674Z,35.94
2023-04-03T15:12:19.393Z,36.21
2023-04-03T15:14:35.303Z,36.19
2023-04-03T15:16:39.275Z,35.55
2023-04-03T15:18:40.979Z,35.75
2023-04-03T15:20:44.122Z,35.81
2023-04-03T15:22:45.900Z,36.68
2023-04-03T15:24:47.642Z,36.90
2023-04-03T15:26:49.163Z,37.21
2023-04-03T15:28:51.423Z,36.98
2023-04-03T15:30:53.423Z,37.17
2023-04-03T15:32:54.939Z,37.09
2023-04-03T15:34:56.802Z,37.18
2023-04-03T15:36:58.518Z,36.60
2023-04-03T15:39:00.047Z,36.12
2023-04-03T15:41:04.087Z,36.56
2023-04-03T15:43:07.035Z,36.76
2023-04-03T15:45:09.255Z,37.26
2023-04-03T15:47:11.173Z,37.41
2023-04-03T15:49:13.460Z,37.09
2023-04-03T15:51:16.384Z,37.10
2023-04-03T15:53:17.934Z,37.01
2023-04-03T15:55:19.483Z,36.23
2023-04-03T15:57:21.289Z,36.08
2023-04-03T15:59:23.066Z,36.65
2023-04-03T16:01:24.767Z,37.05
2023-04-03T16:03:26.472Z,37.41
2023-04-03T16:05:31.092Z,37.60
2023-04-03T16:07:32.719Z,37.58
2023-04-03T16:09:35.894Z,37.02
2023-04-03T16:11:40.104Z,37.60
2023-04-03T16:13:41.996Z,38.43
2023-04-03T16:15:43.996Z,38.73
2023-04-03T16:17:46.281Z,38.78
2023-04-03T16:19:47.939Z,39.15
2023-04-03T16:21:49.573Z,38.63
2023-04-03T16:23:51.404Z,38.36
2023-04-03T16:25:52.954Z,38.01
2023-04-03T16:27:54.816Z,37.90
2023-04-03T16:29:56.360Z,37.54
2023-04-03T16:31:59.356Z,37.36
2023-04-03T16:34:03.962Z,37.26
2023-04-03T16:36:06.212Z,37.56
2023-04-03T16:38:07.676Z,37.83
2023-04-03T16:40:10.727Z,38.32
2023-04-03T16:42:12.574Z,38.32
2023-04-03T16:44:14.678Z,37.95
2023-04-03T16:46:16.220Z,37.67
2023-04-03T16:48:18.336Z,38.17
2023-04-03T16:50:20.490Z,38.11
2023-04-03T16:52:21.965Z,38.17
2023-04-03T16:54:23.490Z,37.97
2023-04-03T16:56:27.612Z,37.97
2023-04-03T16:58:29.370Z,37.76
2023-04-03T17:00:32.154Z,37.57
2023-04-03T17:02:33.835Z,37.70
2023-04-03T17:04:39.771Z,37.87
2023-04-03T17:06:44.051Z,38.44
2023-04-03T17:08:48.602Z,38.84
2023-04-03T17:11:01.419Z,39.39
2023-04-03T17:13:03.299Z,38.93
2023-04-03T17:15:07.899Z,38.42
2023-04-03T17:17:10.053Z,38.64
2023-04-03T17:19:12.995Z,38.17
2023-04-03T17:21:15.833Z,38.03
2023-04-03T17:23:17.290Z,37.76
2023-04-03T17:25:19.044Z,37.13
2023-04-03T17:27:20.539Z,37.07
2023-04-03T17:29:22.065Z,37.90
2023-04-03T17:31:23.587Z,37.87
2023-04-03T17:33:26.683Z,37.56
2023-04-03T17:35:29.006Z,37.83
2023-04-03T17:37:30.578Z,37.52
2023-04-03T17:39:32.143Z,37.69
2023-04-03T17:41:33.935Z,37.75
2023-04-03T17:43:36.029Z,37.64
2023-04-03T17:45:38.461Z,38.07
2023-04-03T17:47:40.295Z,38.14
2023-04-03T17:49:41.932Z,38.33
2023-04-03T17:51:43.443Z,38.37
2023-04-03T17:53:45.045Z,38.46
2023-04-03T17:55:46.533Z,38.45
2023-04-03T17:57:48.066Z,38.30
2023-04-03T17:59:49.727Z,38.43
2023-04-03T18:01:52.435Z,38.62
2023-04-03T18:03:56.583Z,38.33
2023-04-03T18:05:58.310Z,38.04
2023-04-03T18:08:01.356Z,38.08
2023-04-03T18:10:06.937Z,38.42
2023-04-03T18:12:09.684Z,38.53
2023-04-03T18:14:14.225Z,38.67
2023-04-03T18:16:16.033Z,38.60
2023-04-03T18:18:17.899Z,38.75
2023-04-03T18:20:19.737Z,38.93
2023-04-03T18:22:23.933Z,38.71
2023-04-03T18:24:26.412Z,38.87
2023-04-03T18:26:29.467Z,38.92
2023-04-03T18:28:34.690Z,38.98
2023-04-03T18:30:36.541Z,38.95
2023-04-03T18:32:38.024Z,38.95
2023-04-03T18:34:39.707Z,39.32
2023-04-03T18:36:41.720Z,39.54
2023-04-03T18:38:43.465Z,39.53
2023-04-03T18:40:47.349Z,39.03
2023-04-03T18:42:49.324Z,39.33
2023-04-03T18:45:01.190Z,39.67
2023-04-03T18:47:02.849Z,40.00
2023-04-03T18:49:04.669Z,39.76
2023-04-03T18:51:06.380Z,39.83
2023-04-03T18:53:08.121Z,39.67
2023-04-03T18:55:11.279Z,39.70
2023-04-03T18:57:12.770Z,39.59
2023-04-03T18:59:14.606Z,40.06
2023-04-03T19:01:16.360Z,40.00
2023-04-03T19:03:18.073Z,40.73
2023-04-03T19:05:20.820Z,40.53
2023-04-03T19:07:22.758Z,40.63
2023-04-03T19:09:26.354Z,40.30
2023-04-03T19:11:30.075Z,40.67
2023-04-03T19:13:32.543Z,40.61
2023-04-03T19:15:34.374Z,40.66
2023-04-03T19:17:36.117Z,41.35
2023-04-03T19:19:37.701Z,40.88
2023-04-03T19:21:41.504Z,40.77
2023-04-03T19:23:44.886Z,40.70
2023-04-03T19:25:46.478Z,41.00
2023-04-03T19:27:51.401Z,40.82
2023-04-03T19:29:52.910Z,40.98
2023-04-03T19:31:54.599Z,41.06
2023-04-03T19:33:57.195Z,40.70
2023-04-03T19:35:58.660Z,40.46
2023-04-03T19:38:00.146Z,40.62
2023-04-03T19:40:01.797Z,40.82
2023-04-03T19:42:07.329Z,40.94
2023-04-03T19:44:10.447Z,41.05
2023-04-03T19:46:12.420Z,41.08
2023-04-03T19:48:15.826Z,41.42
2023-04-03T19:50:17.429Z,41.26
2023-04-03T19:52:20.268Z,41.06
2023-04-03T19:54:24.903Z,41.34
2023-04-03T19:56:27.071Z,41.34
2023-04-03T19:58:32.425Z,41.60
2023-04-03T20:00:34.103Z,41.47
2023-04-03T20:02:35.965Z,41.48
2023-04-03T20:04:37.684Z,41.90
2023-04-03T20:06:39.607Z,41.50
2023-04-03T20:08:42.003Z,41.80
2023-04-03T20:10:44.134Z,41.59
2023-04-03T20:12:45.759Z,41.75
2023-04-03T20:14:47.211Z,41.90
2023-04-03T20:16:48.810Z,41.67
2023-04-03T20:18:52.480Z,41.88
2023-04-03T20:20:55.005Z,42.17
2023-04-03T20:22:57.576Z,42.03
2023-04-03T20:25:06.119Z,41.97
2023-04-03T20:27:08.204Z,41.89
2023-04-03T20:29:09.844Z,41.83
2023-04-03T20:31:17.603Z,42.22
2023-04-03T20:33:22.025Z,42.03
2023-04-03T20:35:24.988Z,41.75
2023-04-03T20:37:27.838Z,42.09
2023-04-03T20:39:43.911Z,41.98
2023-04-03T20:41:45.391Z,42.04
2023-04-03T20:43:47.812Z,42.09
2023-04-03T20:45:49.462Z,42.05
2023-04-03T20:47:52.143Z,41.67
2023-04-03T20:49:53.865Z,41.90
2023-04-03T20:51:55.468Z,42.21
2023-04-03T20:53:59.578Z,42.21
2023-04-03T20:56:01.524Z,42.41
2023-04-03T20:58:03.654Z,41.92
2023-04-03T21:00:07.208Z,41.94
2023-04-03T21:02:08.770Z,42.17
2023-04-03T21:04:26.705Z,42.40
2023-04-03T21:07:06.327Z,42.41
2023-04-03T21:09:45.608Z,42.19
2023-04-03T21:12:24.663Z,42.04
2023-04-03T21:15:04.888Z,42.02
2023-04-03T21:17:06.373Z,42.24
2023-04-03T21:19:11.412Z,42.27
2023-04-03T21:21:22.224Z,41.91
2023-04-03T21:23:28.489Z,42.25
2023-04-03T21:25:30.407Z,42.22
2023-04-03T21:27:32.080Z,42.16
2023-04-03T21:29:33.709Z,42.08
2023-04-03T21:32:06.326Z,42.16
2023-04-03T21:34:20.112Z,41.92
2023-04-03T21:36:21.635Z,42.38
2023-04-03T21:38:23.735Z,42.35
2023-04-03T21:40:26.371Z,42.36
2023-04-03T21:42:27.842Z,42.02
2023-04-03T21:44:29.377Z,42.31
2023-04-03T21:46:31.089Z,42.75
2023-04-03T21:48:40.333Z,42.43
2023-04-03T21:50:42.267Z,42.47
2023-04-03T21:52:46.807Z,42.79
2023-04-03T21:54:49.449Z,42.63
2023-04-03T21:56:52.363Z,42.81
2023-04-03T21:58:57.573Z,42.31
2023-04-03T22:01:20.457Z,42.90
2023-04-03T22:03:23.301Z,42.93
2023-04-03T22:05:26.365Z,42.76
2023-04-03T22:07:29.201Z,42.75
2023-04-03T22:09:40.569Z,42.47
2023-04-03T22:11:44.573Z,42.80
2023-04-03T22:13:46.173Z,42.54
2023-04-03T22:15:48.308Z,42.52
2023-04-03T22:17:49.876Z,42.49
2023-04-03T22:19:51.564Z,42.80
2023-04-03T22:21:53.586Z,42.78
2023-04-03T22:23:55.036Z,42.41
2023-04-03T22:26:01.963Z,42.72
2023-04-03T22:28:03.421Z,42.90
2023-04-03T22:30:05.793Z,42.67
2023-04-03T22:32:07.369Z,42.95
2023-04-03T22:34:08.948Z,42.32
2023-04-03T22:36:12.325Z,42.70
2023-04-03T22:38:15.359Z,42.90
2023-04-03T22:40:18.216Z,42.95
2023-04-03T22:42:19.650Z,42.83
2023-04-03T22:44:21.291Z,42.84
2023-04-03T22:46:31.899Z,42.86
2023-04-03T22:48:33.567Z,42.48
2023-04-03T22:50:37.349Z,42.76
2023-04-03T22:52:38.931Z,42.55
2023-04-03T22:54:43.383Z,42.73
2023-04-03T22:56:44.872Z,42.47
2023-04-03T22:58:49.773Z,42.50
2023-04-03T23:01:05.815Z,42.83
2023-04-03T23:03:09.430Z,42.38
2023-04-03T23:05:15.348Z,42.52
2023-04-03T23:07:17.305Z,42.33
2023-04-03T23:09:18.732Z,42.35
2023-04-03T23:11:20.174Z,42.51
2023-04-03T23:13:21.841Z,42.53
2023-04-03T23:15:23.436Z,42.73
2023-04-03T23:17:24.949Z,42.63
2023-04-03T23:19:26.614Z,42.58
2023-04-03T23:21:28.280Z,42.58
2023-04-03T23:23:29.939Z,42.70
2023-04-03T23:25:31.436Z,42.52
2023-04-03T23:27:36.583Z,42.55
2023-04-03T23:29:38.033Z,42.57
2023-04-03T23:31:39.537Z,43.21
2023-04-03T23:33:44.472Z,43.48
2023-04-03T23:35:48.335Z,43.93
2023-04-03T23:37:49.780Z,44.20
2023-04-03T23:39:51.243Z,44.53
2023-04-03T23:41:53.295Z,44.60
2023-04-03T23:44:00.612Z,44.72
2023-04-03T23:46:11.334Z,45.20
2023-04-03T23:48:15.539Z,45.00
2023-04-03T23:50:19.766Z,44.58
2023-04-03T23:52:21.224Z,44.18
2023-04-03T23:54:23.731Z,44.09
2023-04-03T23:56:25.274Z,44.03
2023-04-03T23:58:28.981Z,44.22
